Time;durP1;ratioP1;P1;durP2;ratioP2;P2;SDS_P1;SDS_P2;PMS_P1;PMS_P2;Temp;Humidity;BMP_temperature;BMP_pressure;BME280_temperature;BME280_humidity;BME280_pressure;Samples;Min_cycle;Max_cycle;Signal;HPM_P1;HPM_P2
2023/07/14 00:05:10;;;;;;;3.10;2.10;;;14.80;1.00;;;;;;5001100;28;20867;-80
2023/07/14 00:07:36;;;;;;;3.50;1.90;;;14.80;1.00;;;;;;4998607;28;20804;-72
2023/07/14 00:10:03;;;;;;;7.03;2.10;;;14.80;1.00;;;;;;5003427;28;20440;-72
2023/07/14 00:12:28;;;;;;;3.10;1.83;;;14.80;1.00;;;;;;5004271;28;20183;-72
2023/07/14 00:14:54;;;;;;;3.80;2.00;;;14.80;1.00;;;;;;4991321;28;20506;-72
2023/07/14 00:17:19;;;;;;;5.60;1.83;;;14.70;1.00;;;;;;4996054;28;20182;-72
2023/07/14 00:19:45;;;;;;;14.23;2.17;;;14.60;1.00;;;;;;4995477;28;20219;-72
2023/07/14 00:22:14;;;;;;;12.00;2.80;;;14.70;1.00;;;;;;4996108;28;20665;-81
2023/07/14 00:25:12;;;;;;;6.23;2.33;;;14.70;1.00;;;;;;4997655;28;20189;-80
2023/07/14 00:30:59;;;;;;;4.30;2.20;;;14.70;1.00;;;;;;4997657;28;20413;-80
2023/07/14 00:37:40;;;;;;;7.30;2.33;;;14.60;1.00;;;;;;4983221;28;20242;-81
2023/07/14 00:47:26;;;;;;;5.17;2.03;;;14.30;1.00;;;;;;5013909;28;20406;-80
2023/07/14 00:50:34;;;;;;;3.43;2.23;;;14.30;1.00;;;;;;4976407;28;20915;-81
2023/07/14 00:53:06;;;;;;;3.03;1.97;;;14.30;1.00;;;;;;4995632;28;20399;-72
2023/07/14 00:55:39;;;;;;;3.43;1.93;;;14.20;1.00;;;;;;5000888;28;20442;-72
2023/07/14 00:58:26;;;;;;;3.50;2.13;;;14.20;1.00;;;;;;4993343;28;20935;-72
2023/07/14 01:01:04;;;;;;;9.50;2.37;;;14.20;1.00;;;;;;4991052;28;20864;-73
2023/07/14 01:03:39;;;;;;;2.20;2.00;;;14.20;1.00;;;;;;5004319;28;20954;-72
2023/07/14 01:06:33;;;;;;;3.43;1.83;;;14.40;1.00;;;;;;5001361;28;20417;-81
2023/07/14 01:09:13;;;;;;;3.10;2.00;;;14.40;1.00;;;;;;4995176;28;20437;-81
2023/07/14 01:12:13;;;;;;;2.40;2.13;;;14.40;1.00;;;;;;5005999;28;20431;-81
2023/07/14 01:14:59;;;;;;;2.87;2.17;;;14.50;1.00;;;;;;5011046;28;20392;-80
2023/07/14 01:20:46;;;;;;;3.10;2.00;;;14.70;1.00;;;;;;5010214;28;20976;-81
2023/07/14 01:23:53;;;;;;;2.40;2.23;;;14.80;1.00;;;;;;5009048;28;20501;-72
2023/07/14 01:26:42;;;;;;;6.33;1.80;;;14.90;1.00;;;;;;5004385;28;20200;-72
2023/07/14 01:29:08;;;;;;;3.23;2.00;;;15.00;1.00;;;;;;4985340;28;20421;-72
2023/07/14 01:31:35;;;;;;;6.80;2.03;;;15.10;1.00;;;;;;4994567;28;20922;-72
2023/07/14 01:34:02;;;;;;;2.20;1.90;;;15.10;1.00;;;;;;4994716;28;20480;-72
2023/07/14 01:36:28;;;;;;;6.57;2.00;;;15.10;1.00;;;;;;5005370;28;20431;-72
2023/07/14 01:38:55;;;;;;;3.40;2.33;;;15.10;1.00;;;;;;4998273;28;20441;-73
2023/07/14 01:41:21;;;;;;;3.57;2.20;;;15.30;1.00;;;;;;4999734;28;20421;-72
2023/07/14 01:43:53;;;;;;;2.20;2.00;;;15.40;1.00;;;;;;4997083;28;20464;-72
2023/07/14 01:46:21;;;;;;;2.13;1.80;;;15.50;1.00;;;;;;4994693;28;20481;-74
2023/07/14 01:48:59;;;;;;;3.23;1.70;;;15.50;1.00;;;;;;5001094;28;20411;-72
2023/07/14 01:51:34;;;;;;;4.67;2.20;;;15.50;1.00;;;;;;4995086;28;20457;-73
2023/07/14 01:54:12;;;;;;;6.27;2.20;;;15.60;1.00;;;;;;5004220;28;20454;-73
2023/07/14 01:56:42;;;;;;;5.33;2.30;;;15.70;1.00;;;;;;4994127;28;20429;-72
2023/07/14 01:59:19;;;;;;;7.33;1.77;;;15.70;1.00;;;;;;5000767;28;20944;-73
2023/07/14 02:01:46;;;;;;;5.20;2.23;;;15.70;1.00;;;;;;4981900;28;20439;-72
2023/07/14 02:04:39;;;;;;;3.30;2.30;;;15.70;1.00;;;;;;4989562;28;21056;-72
2023/07/14 02:07:40;;;;;;;4.67;2.20;;;15.70;1.00;;;;;;4987138;28;20415;-80
2023/07/14 02:10:40;;;;;;;5.20;2.40;;;15.70;1.00;;;;;;4998084;28;20390;-81
2023/07/14 02:13:41;;;;;;;4.37;2.07;;;15.80;1.00;;;;;;5000777;28;20421;-80
2023/07/14 02:16:41;;;;;;;5.20;2.00;;;15.90;1.00;;;;;;4992414;28;20402;-80
2023/07/14 02:19:35;;;;;;;2.90;1.90;;;15.90;1.00;;;;;;5013605;28;20497;-80
2023/07/14 02:22:02;;;;;;;3.90;1.70;;;15.90;1.00;;;;;;4990277;28;20506;-72
2023/07/14 02:24:30;;;;;;;4.47;2.13;;;16.00;1.00;;;;;;5004505;28;20463;-72
2023/07/14 02:27:02;;;;;;;6.07;2.20;;;16.00;1.00;;;;;;4996482;28;20870;-73
2023/07/14 02:29:29;;;;;;;2.40;2.20;;;16.00;1.00;;;;;;4997354;28;20437;-72
2023/07/14 02:32:04;;;;;;;2.73;1.60;;;16.10;1.00;;;;;;4993703;28;20822;-72
2023/07/14 02:34:39;;;;;;;3.53;2.00;;;16.00;1.00;;;;;;4985610;28;20524;-72
2023/07/14 02:38:00;;;;;;;7.00;2.10;;;16.00;1.00;;;;;;5001120;28;20439;-80
2023/07/14 02:40:51;;;;;;;4.50;1.80;;;16.10;1.00;;;;;;5001729;28;20420;-80
2023/07/14 02:43:24;;;;;;;4.63;1.80;;;16.10;1.00;;;;;;5013546;28;20413;-80
2023/07/14 02:46:11;;;;;;;2.70;2.03;;;16.10;1.00;;;;;;5013116;28;20429;-81
2023/07/14 02:51:58;;;;;;;2.10;1.80;;;16.10;1.00;;;;;;4986564;28;20408;-72
2023/07/14 02:54:25;;;;;;;9.80;2.57;;;16.10;1.00;;;;;;4995813;28;20396;-73
2023/07/14 02:56:53;;;;;;;2.43;1.90;;;16.10;1.00;;;;;;4995467;28;20190;-72
2023/07/14 02:59:23;;;;;;;6.93;2.17;;;16.10;1.00;;;;;;4997050;28;20408;-73
2023/07/14 03:01:53;;;;;;;4.07;2.03;;;16.00;1.00;;;;;;4993811;28;20421;-72
2023/07/14 03:04:29;;;;;;;5.63;1.97;;;16.00;1.00;;;;;;4995933;28;20973;-73
2023/07/14 03:06:54;;;;;;;12.63;2.57;;;15.90;1.00;;;;;;4996475;28;20954;-73
2023/07/14 03:09:20;;;;;;;3.30;2.30;;;15.90;1.00;;;;;;4996353;28;20437;-73
2023/07/14 03:12:40;;;;;;;3.10;2.10;;;15.80;1.00;;;;;;4996234;28;20186;-86
2023/07/14 03:15:43;;;;;;;2.00;1.90;;;15.80;1.00;;;;;;4997480;28;20174;-84
2023/07/14 03:18:40;;;;;;;14.67;2.37;;;15.80;1.00;;;;;;5002788;28;20435;-84
2023/07/14 03:21:40;;;;;;;10.73;2.23;;;15.70;1.00;;;;;;5003115;28;20427;-84
2023/07/14 03:24:11;;;;;;;3.40;1.93;;;15.60;1.00;;;;;;5009250;28;20460;-84
2023/07/14 03:27:10;;;;;;;8.13;2.30;;;15.60;1.00;;;;;;5021818;28;20791;-83
2023/07/14 03:30:10;;;;;;;4.00;2.37;;;15.50;1.00;;;;;;4990106;28;20412;-83
2023/07/14 03:33:10;;;;;;;5.70;2.27;;;15.40;1.00;;;;;;4995129;28;20506;-84
2023/07/14 03:39:40;;;;;;;3.47;2.07;;;15.40;1.00;;;;;;4978227;28;20429;-86
2023/07/14 03:42:11;;;;;;;12.97;2.50;;;15.40;1.00;;;;;;4993569;28;20396;-85
2023/07/14 03:44:53;;;;;;;7.90;2.23;;;15.40;1.00;;;;;;4988435;28;20427;-85
2023/07/14 03:48:10;;;;;;;2.90;2.50;;;15.40;1.00;;;;;;5015681;28;20404;-86
2023/07/14 03:54:12;;;;;;;8.10;1.90;;;15.40;1.00;;;;;;5016652;28;20449;-86
2023/07/14 04:00:40;;;;;;;3.67;2.10;;;15.50;1.00;;;;;;4999200;28;20377;-85
2023/07/14 04:03:40;;;;;;;4.03;2.03;;;15.50;1.00;;;;;;5003689;28;20432;-85
2023/07/14 04:09:28;;;;;;;7.10;2.40;;;15.70;1.00;;;;;;5003807;28;20454;-87
2023/07/14 04:12:22;;;;;;;5.03;2.07;;;15.80;1.00;;;;;;4986293;28;20437;-86
2023/07/14 04:15:40;;;;;;;6.83;2.70;;;15.80;1.00;;;;;;4995854;28;20185;-87
2023/07/14 04:18:40;;;;;;;4.30;2.40;;;15.90;1.00;;;;;;4987732;28;20441;-87
2023/07/14 04:21:40;;;;;;;2.30;1.97;;;16.10;1.00;;;;;;4976587;28;20403;-87
2023/07/14 04:24:11;;;;;;;2.70;2.03;;;16.20;1.00;;;;;;4998531;28;20440;-87
2023/07/14 04:27:12;;;;;;;3.07;1.90;;;16.30;1.00;;;;;;5015062;28;20395;-86
2023/07/14 04:29:59;;;;;;;4.10;2.00;;;16.30;1.00;;;;;;5015327;28;20429;-87
2023/07/14 04:32:43;;;;;;;3.43;2.17;;;16.40;1.00;;;;;;5015836;28;20467;-86
2023/07/14 04:35:17;;;;;;;2.90;2.37;;;16.40;1.00;;;;;;5000240;28;20411;-86
2023/07/14 04:38:10;;;;;;;4.80;2.10;;;16.40;1.00;;;;;;5018572;28;20426;-86
2023/07/14 04:40:41;;;;;;;4.50;2.20;;;16.50;1.00;;;;;;4976718;28;20412;-86
2023/07/14 04:43:12;;;;;;;4.03;2.13;;;16.60;1.00;;;;;;5001413;28;20513;-87
2023/07/14 04:45:43;;;;;;;5.17;2.17;;;16.60;1.00;;;;;;4997539;28;20461;-86
2023/07/14 04:48:40;;;;;;;10.60;2.20;;;16.60;1.00;;;;;;5003719;28;20489;-86
2023/07/14 04:51:41;;;;;;;7.90;2.57;;;16.70;1.00;;;;;;5008472;28;20435;-86
2023/07/14 04:54:11;;;;;;;5.67;2.77;;;16.80;1.00;;;;;;5009713;28;20559;-86
2023/07/14 04:56:43;;;;;;;4.33;2.80;;;16.80;1.00;;;;;;4999519;28;20435;-86
2023/07/14 04:59:11;;;;;;;8.97;2.50;;;16.80;1.00;;;;;;5009910;28;20437;-87
2023/07/14 05:01:37;;;;;;;6.63;2.30;;;16.90;1.00;;;;;;4998690;28;20541;-86
2023/07/14 05:04:17;;;;;;;4.20;2.10;;;;;;;;;;5014667;28;20831;-87
2023/07/14 05:10:18;;;;;;;8.17;2.30;;;17.30;1.00;;;;;;4976645;28;20471;-86
2023/07/14 05:12:51;;;;;;;9.60;2.23;;;17.60;1.00;;;;;;4998326;28;20438;-86
2023/07/14 05:16:10;;;;;;;4.07;2.17;;;17.60;1.00;;;;;;4994546;28;20430;-86
2023/07/14 05:22:11;;;;;;;5.67;2.20;;;18.30;1.00;;;;;;4993439;28;20448;-85
2023/07/14 05:25:11;;;;;;;4.10;2.20;;;18.50;1.00;;;;;;4985830;28;20550;-85
2023/07/14 05:27:43;;;;;;;2.23;2.03;;;18.50;1.00;;;;;;4997941;28;20962;-86
2023/07/14 05:30:17;;;;;;;5.27;2.23;;;18.70;1.00;;;;;;5019931;28;20439;-86
2023/07/14 05:32:49;;;;;;;2.23;2.00;;;18.90;1.00;;;;;;4999530;28;20443;-86
2023/07/14 05:35:35;;;;;;;3.77;2.47;;;18.90;1.00;;;;;;5030582;28;20422;-86
2023/07/14 05:38:11;;;;;;;9.93;2.33;;;19.20;1.00;;;;;;4976154;28;20399;-85
2023/07/14 05:40:41;;;;;;;4.17;2.50;;;19.20;1.00;;;;;;5008242;28;20431;-85
2023/07/14 05:43:07;;;;;;;5.20;2.13;;;19.30;1.00;;;;;;5003895;28;20515;-86
2023/07/14 05:45:33;;;;;;;3.33;1.93;;;19.40;1.00;;;;;;4993803;28;20470;-86
2023/07/14 05:48:40;;;;;;;6.43;2.30;;;19.60;1.00;;;;;;5002962;28;20435;-86
2023/07/14 05:51:17;;;;;;;5.07;2.40;;;19.60;1.00;;;;;;4975938;28;20408;-85
2023/07/14 05:54:10;;;;;;;3.83;1.90;;;19.80;1.00;;;;;;5010792;28;20481;-87
2023/07/14 05:56:36;;;;;;;3.40;2.40;;;19.90;1.00;;;;;;4984929;28;20433;-85
2023/07/14 05:59:11;;;;;;;5.57;2.40;;;19.90;1.00;;;;;;5003228;28;20436;-86
2023/07/14 06:01:41;;;;;;;6.10;2.37;;;20.00;1.00;;;;;;4993905;28;20185;-86
2023/07/14 06:04:11;;;;;;;3.30;2.13;;;20.10;1.00;;;;;;4993838;28;20477;-85
2023/07/14 06:07:16;;;;;;;11.97;2.17;;;20.30;1.00;;;;;;4996896;28;20571;-86
2023/07/14 06:09:47;;;;;;;7.07;2.37;;;20.40;1.00;;;;;;5007051;28;20408;-86
2023/07/14 06:12:40;;;;;;;3.80;2.57;;;20.40;1.00;;;;;;5012617;28;20960;-86
2023/07/14 06:15:11;;;;;;;5.07;2.50;;;20.50;1.00;;;;;;4990411;28;20484;-85
2023/07/14 06:17:42;;;;;;;7.57;3.57;;;;;;;;;;5004826;28;20431;-86
2023/07/14 06:20:11;;;;;;;5.23;2.93;;;;;;;;;;4998734;28;20469;-86
2023/07/14 06:22:48;;;;;;;6.63;2.50;;;20.60;1.00;;;;;;5009984;28;20822;-86
2023/07/14 06:25:17;;;;;;;3.27;2.00;;;20.70;1.00;;;;;;4993430;28;21066;-88
2023/07/14 06:28:11;;;;;;;6.83;2.50;;;20.70;1.00;;;;;;4989666;28;21887;-83
2023/07/14 06:30:37;;;;;;;4.77;2.37;;;20.90;1.00;;;;;;5012673;28;20520;-83
2023/07/14 06:33:03;;;;;;;7.33;2.00;;;21.20;1.00;;;;;;4984212;28;20926;-82
2023/07/14 06:35:41;;;;;;;6.40;2.80;;;21.20;1.00;;;;;;4989605;28;20881;-82
2023/07/14 06:38:08;;;;;;;5.90;2.50;;;21.50;1.00;;;;;;4988876;28;20878;-82
2023/07/14 06:40:41;;;;;;;8.40;2.47;;;21.70;1.00;;;;;;5007696;28;20477;-82
2023/07/14 06:43:09;;;;;;;8.10;2.87;;;21.90;1.00;;;;;;5007830;28;20438;-83
2023/07/14 06:45:37;;;;;;;18.10;2.50;;;22.10;1.00;;;;;;5003348;28;20456;-83
2023/07/14 06:48:11;;;;;;;6.00;2.60;;;22.10;1.00;;;;;;4992959;28;20424;-83
2023/07/14 06:50:41;;;;;;;20.43;2.40;;;22.30;1.00;;;;;;5022408;28;20420;-83
2023/07/14 06:53:41;;;;;;;7.87;2.80;;;22.40;1.00;;;;;;5006009;28;20440;-86
2023/07/14 06:56:07;;;;;;;6.30;2.30;;;22.50;1.00;;;;;;4993571;28;20791;-87
2023/07/14 06:58:41;;;;;;;10.63;2.30;;;22.40;1.00;;;;;;5006587;28;20436;-88
2023/07/14 07:01:07;;;;;;;5.43;2.40;;;22.50;1.00;;;;;;5005922;28;20430;-89
2023/07/14 07:03:35;;;;;;;5.93;2.67;;;22.70;1.00;;;;;;5013938;28;20429;-88
2023/07/14 07:06:11;;;;;;;4.20;2.00;;;22.80;1.00;;;;;;5023498;28;20441;-88
2023/07/14 07:08:41;;;;;;;3.97;2.40;;;22.90;1.00;;;;;;4998596;28;20419;-88
2023/07/14 07:11:12;;;;;;;7.53;2.30;;;23.00;1.00;;;;;;5015921;28;20435;-86
2023/07/14 07:13:41;;;;;;;4.60;2.27;;;23.00;1.00;;;;;;5003277;28;20431;-86
2023/07/14 07:16:17;;;;;;;2.90;2.33;;;22.90;1.00;;;;;;5004583;28;20485;-86
2023/07/14 07:18:47;;;;;;;3.87;2.30;;;22.70;1.00;;;;;;5022987;28;20429;-88
2023/07/14 07:21:34;;;;;;;9.23;2.57;;;22.70;1.00;;;;;;4999793;28;20422;-88
2023/07/14 07:24:28;;;;;;;7.57;2.60;;;22.60;1.00;;;;;;4997802;28;20463;-88
2023/07/14 07:27:16;;;;;;;2.33;2.13;;;22.50;1.00;;;;;;5014155;28;20432;-88
2023/07/14 07:30:05;;;;;;;4.63;2.17;;;22.50;1.00;;;;;;5001882;28;21125;-88
2023/07/14 07:32:47;;;;;;;6.30;2.37;;;22.60;1.00;;;;;;5006327;28;20991;-88
2023/07/14 07:35:17;;;;;;;3.07;1.80;;;22.90;1.00;;;;;;5015377;28;20494;-89
2023/07/14 07:41:46;;;;;;;2.77;2.23;;;23.30;1.00;;;;;;4991917;28;20403;-89
2023/07/14 07:44:46;;;;;;;7.20;2.30;;;23.50;1.00;;;;;;4999397;28;20489;-88
2023/07/14 07:47:17;;;;;;;4.87;2.30;;;23.90;1.00;;;;;;5007949;28;20420;-87
2023/07/14 07:49:59;;;;;;;9.90;2.23;;;24.20;1.00;;;;;;4981657;28;20436;-87
2023/07/14 07:56:02;;;;;;;3.70;1.40;;;24.70;1.00;;;;;;5003785;28;20458;-86
2023/07/14 07:58:46;;;;;;;4.60;2.50;;;25.00;1.00;;;;;;5016051;28;20427;-86
2023/07/14 08:01:29;;;;;;;6.10;2.10;;;;;;;;;;4980642;28;20466;-86
2023/07/14 08:04:11;;;;;;;11.03;2.10;;;;;;;;;;4995917;28;20694;-86
2023/07/14 08:06:48;;;;;;;5.33;2.00;;;25.40;1.00;;;;;;4999444;28;20443;-86
2023/07/14 08:09:48;;;;;;;2.77;2.13;;;25.50;1.00;;;;;;4996978;28;20441;-86
2023/07/14 08:12:46;;;;;;;5.17;2.07;;;25.50;1.00;;;;;;4996295;28;20425;-86
2023/07/14 08:15:46;;;;;;;7.60;1.73;;;25.60;1.00;;;;;;5002939;28;20439;-85
2023/07/14 08:18:17;;;;;;;7.10;2.23;;;25.80;1.00;;;;;;4989885;28;20450;-85
2023/07/14 08:20:48;;;;;;;2.67;2.10;;;26.10;1.00;;;;;;4996242;28;20448;-86
2023/07/14 08:23:20;;;;;;;4.93;2.00;;;26.90;1.00;;;;;;5000353;28;20493;-85
2023/07/14 08:26:03;;;;;;;5.07;1.70;;;27.00;1.00;;;;;;5006307;28;21010;-85
2023/07/14 08:32:11;;;;;;;6.00;1.50;;;27.00;1.00;;;;;;4992073;28;20527;-91
2023/07/14 08:34:47;;;;;;;3.47;1.83;;;26.80;1.00;;;;;;4992055;28;20438;-91
2023/07/14 08:41:00;;;;;;;6.13;1.93;;;26.70;1.00;;;;;;4977108;28;20762;-91
2023/07/14 08:43:53;;;;;;;7.17;1.60;;;26.90;1.00;;;;;;4998351;28;20527;-92
2023/07/14 08:46:48;;;;;;;5.13;1.70;;;26.80;1.00;;;;;;5013664;28;20445;-87
2023/07/14 08:49:47;;;;;;;8.93;1.50;;;26.70;1.00;;;;;;5014519;28;20439;-92
2023/07/14 08:52:34;;;;;;;8.90;1.70;;;26.60;1.00;;;;;;5006311;28;20440;-93
2023/07/14 08:58:47;;;;;;;12.93;1.80;;;26.80;1.00;;;;;;4994011;28;20437;-85
2023/07/14 09:02:03;;;;;;;3.33;1.87;;;26.90;1.00;;;;;;4995150;28;20425;-86
2023/07/14 09:04:59;;;;;;;7.57;2.10;;;27.00;1.00;;;;;;5029752;28;20448;-86
2023/07/14 09:10:52;;;;;;;8.00;1.67;;;27.30;1.00;;;;;;5033044;28;20400;-85
2023/07/14 09:13:54;;;;;;;12.13;1.50;;;27.70;1.00;;;;;;5035215;28;20461;-85
2023/07/14 09:26:39;;;;;;;6.17;1.40;;;28.10;1.00;;;;;;5034691;28;20534;-85
2023/07/14 09:32:38;;;;;;;2.30;1.50;;;28.60;1.00;;;;;;5032817;28;20418;-86
2023/07/14 09:42:34;;;;;;;10.80;2.10;;;29.50;1.00;;;;;;5001145;28;20427;-85
2023/07/14 09:48:58;;;;;;;4.37;1.50;;;29.00;1.00;;;;;;4989318;28;20984;-85
2023/07/14 09:55:12;;;;;;;6.20;1.40;;;28.50;1.00;;;;;;5008303;28;20472;-86
2023/07/14 09:58:28;;;;;;;2.93;1.40;;;28.30;1.00;;;;;;5004993;28;20446;-85
2023/07/14 10:04:16;;;;;;;6.90;1.47;;;28.50;1.00;;;;;;4995020;28;20474;-86
2023/07/14 10:06:50;;;;;;;4.40;1.80;;;28.60;1.00;;;;;;5018665;28;20432;-86
2023/07/14 10:12:49;;;;;;;8.43;1.50;;;29.20;1.00;;;;;;4984538;28;20818;-92
2023/07/14 10:19:12;;;;;;;3.60;1.70;;;30.00;1.00;;;;;;4994942;28;20410;-91
2023/07/14 10:22:18;;;;;;;3.87;1.40;;;29.50;1.00;;;;;;5000697;28;20426;-92
2023/07/14 10:24:55;;;;;;;7.27;2.23;;;29.50;1.00;;;;;;4987804;28;20471;-91
2023/07/14 10:27:58;;;;;;;7.73;2.13;;;29.40;1.00;;;;;;4993508;28;20443;-86
2023/07/14 10:30:29;;;;;;;11.07;2.13;;;29.40;1.00;;;;;;4993299;28;20521;-86
2023/07/14 10:32:59;;;;;;;9.23;1.83;;;29.50;1.00;;;;;;4976422;28;20432;-86
2023/07/14 10:36:06;;;;;;;3.90;1.70;;;29.80;1.00;;;;;;4976400;28;21027;-86
2023/07/14 10:42:11;;;;;;;4.53;2.00;;;29.90;1.00;;;;;;4992842;28;20406;-85
2023/07/14 10:44:41;;;;;;;3.07;1.47;;;29.90;1.00;;;;;;4983534;28;20474;-92
2023/07/14 10:47:58;;;;;;;7.33;1.47;;;30.20;1.00;;;;;;4977924;28;20420;-92
2023/07/14 10:57:43;;;;;;;7.23;1.83;;;30.80;1.00;;;;;;4988957;28;20502;-87
2023/07/14 11:07:32;;;;;;;4.73;1.30;;;30.80;1.00;;;;;;4994163;28;20516;-87
2023/07/14 11:09:59;;;;;;;3.33;1.70;;;30.90;1.00;;;;;;4998455;28;20436;-80
2023/07/14 11:15:52;;;;;;;4.17;1.70;;;30.50;1.00;;;;;;5015378;28;20442;-85
2023/07/14 11:32:21;;;;;;;2.63;1.57;;;28.60;1.00;;;;;;5005414;28;20428;-80
2023/07/14 11:35:24;;;;;;;2.53;1.70;;;28.40;1.00;;;;;;5012807;28;20943;-80
2023/07/14 11:38:01;;;;;;;8.83;2.20;;;28.40;1.00;;;;;;5010536;28;20483;-80
2023/07/14 11:40:37;;;;;;;4.03;1.70;;;28.40;1.00;;;;;;5004119;28;20939;-80
2023/07/14 11:43:12;;;;;;;5.87;1.60;;;28.40;1.00;;;;;;4995073;28;20792;-85
2023/07/14 11:45:38;;;;;;;9.10;1.60;;;28.30;1.00;;;;;;4992957;28;20469;-84
2023/07/14 11:48:06;;;;;;;8.37;1.80;;;28.30;1.00;;;;;;4991114;28;20470;-84
2023/07/14 11:50:44;;;;;;;4.30;1.63;;;28.20;1.00;;;;;;4999589;28;20438;-84
2023/07/14 11:53:19;;;;;;;3.83;1.43;;;28.20;1.00;;;;;;4999365;28;20539;-85
2023/07/14 11:55:52;;;;;;;1.70;1.10;;;28.30;1.00;;;;;;5001561;28;20449;-83
2023/07/14 11:58:28;;;;;;;7.07;1.70;;;28.20;1.00;;;;;;4993823;28;20502;-82
2023/07/14 12:01:03;;;;;;;3.07;1.47;;;28.20;1.00;;;;;;4995211;28;20438;-92
2023/07/14 12:07:16;;;;;;;6.37;1.70;;;28.20;1.00;;;;;;4997443;28;20589;-92
2023/07/14 12:10:11;;;;;;;5.60;1.30;;;28.30;1.00;;;;;;5009785;28;20910;-90
2023/07/14 12:13:10;;;;;;;4.73;1.60;;;28.50;1.00;;;;;;5002293;28;20516;-92
2023/07/14 12:16:12;;;;;;;6.43;1.77;;;28.60;1.00;;;;;;5004870;28;20526;-92
2023/07/14 12:19:20;;;;;;;2.47;1.30;;;29.40;1.00;;;;;;5009886;28;20423;-93
2023/07/14 12:22:07;;;;;;;5.70;1.67;;;29.80;1.00;;;;;;4996685;28;20435;-92
2023/07/14 12:24:49;;;;;;;3.57;1.47;;;31.30;1.00;;;;;;4996360;28;20463;-92
2023/07/14 12:27:34;;;;;;;2.70;1.33;;;31.90;1.00;;;;;;4996476;28;20445;-93
2023/07/14 12:30:27;;;;;;;6.67;1.47;;;32.00;1.00;;;;;;4994673;28;20519;-90
2023/07/14 12:33:01;;;;;;;5.87;1.40;;;32.30;1.00;;;;;;4992034;28;20976;-89
2023/07/14 12:35:28;;;;;;;2.80;1.53;;;32.50;1.00;;;;;;5006940;28;20423;-92
2023/07/14 12:37:53;;;;;;;2.60;1.30;;;32.60;1.00;;;;;;5003492;28;20433;-92
2023/07/14 12:41:10;;;;;;;6.53;1.30;;;32.50;1.00;;;;;;5013156;28;20487;-92
2023/07/14 12:43:48;;;;;;;4.63;1.50;;;32.30;1.00;;;;;;5014223;28;20161;-90
2023/07/14 12:46:54;;;;;;;3.50;1.40;;;32.20;1.00;;;;;;4989146;28;20452;-90
2023/07/14 12:49:42;;;;;;;3.10;1.40;;;32.00;1.00;;;;;;4988811;28;20439;-85
2023/07/14 12:55:30;;;;;;;3.33;1.47;;;32.20;1.00;;;;;;4993366;28;20430;-93
2023/07/14 13:01:23;;;;;;;4.57;1.57;;;32.30;1.00;;;;;;5007491;28;20429;-87
2023/07/14 13:03:53;;;;;;;6.00;1.40;;;32.80;1.00;;;;;;4995546;28;20506;-85
2023/07/14 13:06:49;;;;;;;5.60;1.23;;;32.70;1.00;;;;;;5003277;28;20466;-83
2023/07/14 13:13:23;;;;;;;1.73;0.90;;;32.20;1.00;;;;;;5009209;28;20388;-83
2023/07/14 13:16:33;;;;;;;2.30;1.17;;;32.20;1.00;;;;;;4994620;28;20473;-86
2023/07/14 13:18:59;;;;;;;8.20;1.50;;;32.10;1.00;;;;;;4976979;28;20469;-85
2023/07/14 13:25:11;;;;;;;1.43;1.30;;;31.50;1.00;;;;;;4975672;28;20496;-84
2023/07/14 13:27:39;;;;;;;2.73;1.47;;;31.60;1.00;;;;;;5007646;28;20436;-84
2023/07/14 13:30:19;;;;;;;17.43;1.57;;;31.10;1.00;;;;;;4991333;28;20425;-85
2023/07/14 13:33:35;;;;;;;4.80;1.80;;;31.10;1.00;;;;;;4975225;28;20410;-91
2023/07/14 13:39:28;;;;;;;2.20;1.20;;;31.20;1.00;;;;;;4987385;28;20810;-89
2023/07/14 13:42:02;;;;;;;4.10;1.77;;;31.20;1.00;;;;;;5013855;28;20466;-87
2023/07/14 13:47:52;;;;;;;4.23;1.60;;;31.20;1.00;;;;;;5013968;28;20407;-89
2023/07/14 13:54:37;;;;;;;1.67;1.43;;;31.20;1.00;;;;;;4994777;28;20998;-84
2023/07/14 13:57:59;;;;;;;1.97;1.20;;;31.50;1.00;;;;;;4999407;28;20786;-84
2023/07/14 14:01:11;;;;;;;4.23;1.63;;;31.60;1.00;;;;;;5001060;28;20437;-84
2023/07/14 14:03:37;;;;;;;3.60;1.70;;;31.60;1.00;;;;;;5000203;28;20512;-85
2023/07/14 14:12:46;;;;;;;3.60;1.40;;;31.40;1.00;;;;;;4995074;28;20381;-92
2023/07/14 14:19:23;;;;;;;1.93;1.50;;;31.60;1.00;;;;;;4995889;28;20178;-92
2023/07/14 14:28:44;;;;;;;1.60;1.50;;;31.40;1.00;;;;;;4990265;28;20425;-86
2023/07/14 14:31:19;;;;;;;4.70;1.70;;;31.50;1.00;;;;;;4988977;28;20436;-85
2023/07/14 14:33:58;;;;;;;8.43;2.30;;;31.60;1.00;;;;;;4990831;28;20424;-84
2023/07/14 14:36:38;;;;;;;3.03;1.73;;;31.60;1.00;;;;;;4999633;28;20449;-84
2023/07/14 14:39:16;;;;;;;2.20;1.30;;;31.50;1.00;;;;;;4993456;28;20429;-83
2023/07/14 14:42:11;;;;;;;4.93;1.80;;;31.50;1.00;;;;;;4985498;28;20440;-84
2023/07/14 14:45:15;;;;;;;6.20;2.13;;;31.70;1.00;;;;;;4996863;28;20488;-84
2023/07/14 14:47:48;;;;;;;3.40;1.40;;;31.70;1.00;;;;;;4986398;28;20445;-84
2023/07/14 14:53:35;;;;;;;3.93;2.03;;;31.60;1.00;;;;;;4981865;28;20916;-85
2023/07/14 14:56:29;;;;;;;4.10;1.50;;;31.70;1.00;;;;;;4977688;28;20434;-87
2023/07/14 14:59:23;;;;;;;2.00;1.57;;;31.70;1.00;;;;;;5000760;28;20236;-83
2023/07/14 15:02:28;;;;;;;3.43;2.03;;;31.70;1.00;;;;;;4992176;28;20433;-93
2023/07/14 15:18:09;;;;;;;5.10;1.67;;;33.50;1.00;;;;;;4999391;28;20491;-85
2023/07/14 15:20:35;;;;;;;4.47;1.70;;;34.70;1.00;;;;;;4995482;28;20425;-85
2023/07/14 15:26:27;;;;;;;6.10;1.53;;;38.00;1.00;;;;;;4992988;28;20270;-91
2023/07/14 15:32:42;;;;;;;2.77;1.40;;;40.20;1.00;;;;;;4997610;28;20424;-93
2023/07/14 15:35:21;;;;;;;3.67;1.30;;;42.20;1.00;;;;;;4994612;28;22085;-93
2023/07/14 15:38:11;;;;;;;2.23;1.40;;;42.40;1.00;;;;;;4996636;28;20445;-91
2023/07/14 15:41:23;;;;;;;8.77;1.43;;;43.30;1.00;;;;;;5002011;28;20939;-94
2023/07/14 15:44:24;;;;;;;5.63;1.23;;;42.80;1.00;;;;;;4995855;28;20452;-91
2023/07/14 15:53:42;;;;;;;1.37;1.27;;;43.20;1.00;;;;;;4997424;28;20498;-95
2023/07/14 15:59:32;;;;;;;5.77;1.43;;;43.60;1.00;;;;;;4990807;28;20420;-92
2023/07/14 16:05:36;;;;;;;3.77;1.67;;;44.00;1.00;;;;;;4993730;28;20480;-95
2023/07/14 16:11:31;;;;;;;7.33;1.87;;;43.50;1.00;;;;;;4987347;28;20917;-96
2023/07/14 16:14:29;;;;;;;1.30;1.20;;;43.90;1.00;;;;;;4995829;28;20440;-95
2023/07/14 16:20:19;;;;;;;1.83;1.13;;;43.10;1.00;;;;;;4995693;28;20492;-85
2023/07/14 16:22:56;;;;;;;2.13;0.90;;;43.20;1.00;;;;;;4992437;28;20453;-90
2023/07/14 16:26:17;;;;;;;1.77;1.33;;;43.20;1.00;;;;;;4994287;28;20472;-86
2023/07/14 16:32:12;;;;;;;1.70;1.27;;;43.90;1.00;;;;;;4994068;28;20833;-80
2023/07/14 16:34:40;;;;;;;1.50;1.23;;;44.60;1.00;;;;;;4984162;28;20460;-75
2023/07/14 16:37:18;;;;;;;5.80;1.40;;;44.60;1.00;;;;;;4995577;28;20451;-78
2023/07/14 16:39:59;;;;;;;2.53;1.03;;;45.30;1.00;;;;;;4984925;28;20972;-86
2023/07/14 16:42:29;;;;;;;1.33;1.23;;;45.10;1.00;;;;;;4985184;28;20913;-77
2023/07/14 16:45:24;;;;;;;29.83;2.10;;;44.90;1.00;;;;;;4989295;28;20484;-79
2023/07/14 16:47:54;;;;;;;7.23;1.53;;;45.00;1.00;;;;;;4993347;28;20447;-86
2023/07/14 16:50:56;;;;;;;2.10;1.17;;;46.20;1.00;;;;;;5002823;28;20435;-83
2023/07/14 16:53:47;;;;;;;1.57;1.10;;;46.70;1.00;;;;;;4994773;28;20445;-82
2023/07/14 16:56:17;;;;;;;3.17;1.13;;;47.30;1.00;;;;;;4992072;28;20429;-81
2023/07/14 17:02:47;;;;;;;8.60;1.30;;;47.50;1.00;;;;;;5006129;28;20451;-81
2023/07/14 17:06:07;;;;;;;3.80;1.23;;;47.30;1.00;;;;;;5008218;28;20468;-82
2023/07/14 17:09:19;;;;;;;2.67;1.43;;;47.00;1.00;;;;;;4994441;28;20413;-82
2023/07/14 17:15:09;;;;;;;1.33;1.20;;;47.80;1.00;;;;;;4994848;28;21636;-82
2023/07/14 17:17:59;;;;;;;0.93;0.90;;;46.50;1.00;;;;;;4999270;28;20432;-82
2023/07/14 17:20:25;;;;;;;19.43;1.57;;;47.40;1.00;;;;;;4989169;28;20783;-74
2023/07/14 17:22:51;;;;;;;5.13;1.17;;;47.20;1.00;;;;;;4995700;28;20987;-74
2023/07/14 17:25:24;;;;;;;53.10;2.67;;;47.10;1.00;;;;;;4995049;28;20220;-75
2023/07/14 17:27:51;;;;;;;28.77;1.43;;;47.70;1.00;;;;;;4992127;28;20178;-74
2023/07/14 17:30:19;;;;;;;6.27;1.00;;;47.80;1.00;;;;;;4996136;28;20463;-75
2023/07/14 17:32:47;;;;;;;7.70;1.90;;;48.10;1.00;;;;;;4991877;28;20759;-74
2023/07/14 17:35:13;;;;;;;28.77;2.00;;;48.20;1.00;;;;;;4994894;28;20899;-75
2023/07/14 17:37:40;;;;;;;1.37;1.03;;;48.20;1.00;;;;;;4992004;28;20475;-75
2023/07/14 17:40:32;;;;;;;4.30;1.20;;;48.30;1.00;;;;;;4995418;28;20189;-75
2023/07/14 17:43:03;;;;;;;2.50;1.20;;;48.60;1.00;;;;;;4993720;28;20448;-74
2023/07/14 17:45:29;;;;;;;11.80;1.47;;;47.70;1.00;;;;;;4995283;28;20466;-74
2023/07/14 17:47:54;;;;;;;62.77;3.50;;;46.10;1.00;;;;;;4994094;28;20794;-74
2023/07/14 17:50:22;;;;;;;5.80;1.43;;;44.60;1.00;;;;;;4996707;28;20193;-74
2023/07/14 17:52:50;;;;;;;14.10;1.93;;;42.80;1.00;;;;;;4992813;28;20276;-74
2023/07/14 17:55:21;;;;;;;2.07;1.00;;;41.50;1.00;;;;;;4993796;28;20455;-74
2023/07/14 17:57:49;;;;;;;2.03;1.30;;;39.80;1.00;;;;;;4994315;28;20460;-73
2023/07/14 18:00:17;;;;;;;13.50;2.13;;;38.60;1.00;;;;;;4992184;28;20453;-73
2023/07/14 18:02:43;;;;;;;10.77;2.10;;;37.20;1.00;;;;;;4994140;28;20425;-74
2023/07/14 18:05:14;;;;;;;4.17;1.50;;;35.60;1.00;;;;;;4998198;28;20457;-74
2023/07/14 18:07:41;;;;;;;4.10;1.40;;;35.60;1.00;;;;;;4994362;28;20421;-73
2023/07/14 18:10:07;;;;;;;8.20;1.50;;;34.90;1.00;;;;;;4998613;28;20425;-73